sensor_id;sensor_type;location;lat;lon;timestamp;pressure;altitude;pressure_sealevel;temperature;humidity
39275;BME280;24980;48.874;2.332;2023-09-08T00:02:38;101099.22;;;32.45;38.97
39275;BME280;24980;48.874;2.332;2023-09-08T00:05:07;101101.69;;;32.44;38.96
39275;BME280;24980;48.874;2.332;2023-09-08T00:07:37;101099.59;;;32.41;38.94
39275;BME280;24980;48.874;2.332;2023-09-08T00:10:14;101099.38;;;32.39;38.94
39275;BME280;24980;48.874;2.332;2023-09-08T00:12:44;101104.20;;;32.39;38.94
39275;BME280;24980;48.874;2.332;2023-09-08T00:15:06;101105.79;;;32.38;38.94
39275;BME280;24980;48.874;2.332;2023-09-08T00:17:37;101107.87;;;32.37;38.94
39275;BME280;24980;48.874;2.332;2023-09-08T00:20:10;101110.08;;;32.38;38.93
39275;BME280;24980;48.874;2.332;2023-09-08T00:22:38;101108.66;;;32.39;38.92
39275;BME280;24980;48.874;2.332;2023-09-08T00:25:08;101107.19;;;32.39;38.91
39275;BME280;24980;48.874;2.332;2023-09-08T00:27:41;101101.11;;;32.39;38.91
39275;BME280;24980;48.874;2.332;2023-09-08T00:30:09;101102.23;;;32.40;38.92
39275;BME280;24980;48.874;2.332;2023-09-08T00:32:39;101103.93;;;32.39;38.94
39275;BME280;24980;48.874;2.332;2023-09-08T00:35:13;101099.15;;;32.38;38.95
39275;BME280;24980;48.874;2.332;2023-09-08T00:37:40;101098.58;;;32.38;38.98
39275;BME280;24980;48.874;2.332;2023-09-08T00:40:10;101096.97;;;32.36;39.01
39275;BME280;24980;48.874;2.332;2023-09-08T00:42:41;101101.84;;;32.36;39.02
39275;BME280;24980;48.874;2.332;2023-09-08T00:45:11;101102.20;;;32.36;39.03
39275;BME280;24980;48.874;2.332;2023-09-08T00:47:41;101099.58;;;32.35;39.03
39275;BME280;24980;48.874;2.332;2023-09-08T00:50:13;101101.76;;;32.34;39.04
39275;BME280;24980;48.874;2.332;2023-09-08T00:52:42;101097.41;;;32.34;39.05
39275;BME280;24980;48.874;2.332;2023-09-08T00:55:12;101097.98;;;32.33;39.06
39275;BME280;24980;48.874;2.332;2023-09-08T00:57:43;101098.15;;;32.31;39.07
39275;BME280;24980;48.874;2.332;2023-09-08T01:00:13;101101.33;;;32.31;39.08
39275;BME280;24980;48.874;2.332;2023-09-08T01:02:51;101098.17;;;32.31;39.11
39275;BME280;24980;48.874;2.332;2023-09-08T01:05:14;101099.84;;;32.30;39.13
39275;BME280;24980;48.874;2.332;2023-09-08T01:10:23;101100.76;;;32.27;39.15
39275;BME280;24980;48.874;2.332;2023-09-08T01:12:45;101102.23;;;32.26;39.17
39275;BME280;24980;48.874;2.332;2023-09-08T01:15:15;101096.46;;;32.23;39.18
39275;BME280;24980;48.874;2.332;2023-09-08T01:17:45;101096.89;;;32.21;39.19
39275;BME280;24980;48.874;2.332;2023-09-08T01:20:19;101095.25;;;32.21;39.19
39275;BME280;24980;48.874;2.332;2023-09-08T01:25:24;101090.10;;;32.20;39.16
39275;BME280;24980;48.874;2.332;2023-09-08T01:27:52;101093.38;;;32.18;39.15
39275;BME280;24980;48.874;2.332;2023-09-08T01:30:19;101093.12;;;32.16;39.15
39275;BME280;24980;48.874;2.332;2023-09-08T01:32:50;101095.06;;;32.15;39.15
39275;BME280;24980;48.874;2.332;2023-09-08T01:35:19;101099.88;;;32.15;39.15
39275;BME280;24980;48.874;2.332;2023-09-08T01:37:49;101097.46;;;32.14;39.15
39275;BME280;24980;48.874;2.332;2023-09-08T01:40:19;101093.87;;;32.12;39.15
39275;BME280;24980;48.874;2.332;2023-09-08T01:42:50;101095.09;;;32.11;39.17
39275;BME280;24980;48.874;2.332;2023-09-08T01:45:20;101095.85;;;32.10;39.18
39275;BME280;24980;48.874;2.332;2023-09-08T01:47:50;101095.11;;;32.09;39.18
39275;BME280;24980;48.874;2.332;2023-09-08T01:50:20;101093.05;;;32.09;39.20
39275;BME280;24980;48.874;2.332;2023-09-08T01:52:51;101097.27;;;32.09;39.23
39275;BME280;24980;48.874;2.332;2023-09-08T01:55:21;101095.84;;;32.08;39.25
39275;BME280;24980;48.874;2.332;2023-09-08T01:57:54;101093.44;;;32.08;39.27
39275;BME280;24980;48.874;2.332;2023-09-08T02:00:21;101094.14;;;32.08;39.29
39275;BME280;24980;48.874;2.332;2023-09-08T02:02:51;101094.08;;;32.06;39.33
39275;BME280;24980;48.874;2.332;2023-09-08T02:05:21;101095.39;;;32.06;39.34
39275;BME280;24980;48.874;2.332;2023-09-08T02:07:51;101095.22;;;32.04;39.36
39275;BME280;24980;48.874;2.332;2023-09-08T02:10:21;101092.14;;;32.03;39.36
39275;BME280;24980;48.874;2.332;2023-09-08T02:12:52;101094.38;;;32.03;39.37
39275;BME280;24980;48.874;2.332;2023-09-08T02:15:22;101095.14;;;32.01;39.38
39275;BME280;24980;48.874;2.332;2023-09-08T02:17:55;101099.73;;;32.01;39.40
39275;BME280;24980;48.874;2.332;2023-09-08T02:20:23;101097.30;;;32.00;39.41
39275;BME280;24980;48.874;2.332;2023-09-08T02:22:55;101102.48;;;31.99;39.44
39275;BME280;24980;48.874;2.332;2023-09-08T02:25:24;101107.55;;;31.99;39.47
39275;BME280;24980;48.874;2.332;2023-09-08T02:28:00;101109.12;;;31.97;39.50
39275;BME280;24980;48.874;2.332;2023-09-08T02:30:24;101112.97;;;31.95;39.55
39275;BME280;24980;48.874;2.332;2023-09-08T02:32:54;101110.94;;;31.93;39.58
39275;BME280;24980;48.874;2.332;2023-09-08T02:35:24;101110.00;;;31.92;39.59
39275;BME280;24980;48.874;2.332;2023-09-08T02:37:54;101104.08;;;31.90;39.59
39275;BME280;24980;48.874;2.332;2023-09-08T02:40:24;101110.94;;;31.88;39.60
39275;BME280;24980;48.874;2.332;2023-09-08T02:42:56;101110.31;;;31.87;39.61
39275;BME280;24980;48.874;2.332;2023-09-08T02:45:25;101103.42;;;31.85;39.62
39275;BME280;24980;48.874;2.332;2023-09-08T02:47:55;101107.20;;;31.84;39.62
39275;BME280;24980;48.874;2.332;2023-09-08T02:50:25;101104.57;;;31.83;39.61
39275;BME280;24980;48.874;2.332;2023-09-08T02:52:58;101108.31;;;31.82;39.61
39275;BME280;24980;48.874;2.332;2023-09-08T02:55:26;101107.58;;;31.82;39.60
39275;BME280;24980;48.874;2.332;2023-09-08T02:57:56;101105.47;;;31.82;39.63
39275;BME280;24980;48.874;2.332;2023-09-08T03:00:29;101106.98;;;31.82;39.64
39275;BME280;24980;48.874;2.332;2023-09-08T03:02:59;101110.12;;;31.81;39.65
39275;BME280;24980;48.874;2.332;2023-09-08T03:05:33;101116.73;;;31.80;39.66
39275;BME280;24980;48.874;2.332;2023-09-08T03:08:00;101115.56;;;31.78;39.67
39275;BME280;24980;48.874;2.332;2023-09-08T03:10:27;101116.39;;;31.77;39.69
39275;BME280;24980;48.874;2.332;2023-09-08T03:13:00;101114.01;;;31.76;39.71
39275;BME280;24980;48.874;2.332;2023-09-08T03:15:30;101110.60;;;31.76;39.74
39275;BME280;24980;48.874;2.332;2023-09-08T03:17:58;101111.80;;;31.75;39.76
39275;BME280;24980;48.874;2.332;2023-09-08T03:20:28;101112.87;;;31.74;39.79
39275;BME280;24980;48.874;2.332;2023-09-08T03:23:02;101109.83;;;31.73;39.85
39275;BME280;24980;48.874;2.332;2023-09-08T03:25:30;101110.05;;;31.72;39.88
39275;BME280;24980;48.874;2.332;2023-09-08T03:28:00;101104.72;;;31.70;39.92
39275;BME280;24980;48.874;2.332;2023-09-08T03:30:31;101101.01;;;31.68;39.94
39275;BME280;24980;48.874;2.332;2023-09-08T03:33:01;101099.81;;;31.64;39.97
39275;BME280;24980;48.874;2.332;2023-09-08T03:35:34;101101.09;;;31.61;39.98
39275;BME280;24980;48.874;2.332;2023-09-08T03:38:06;101099.06;;;31.57;40.00
39275;BME280;24980;48.874;2.332;2023-09-08T03:40:36;101099.12;;;31.56;39.98
39275;BME280;24980;48.874;2.332;2023-09-08T03:43:03;101104.10;;;31.56;39.98
39275;BME280;24980;48.874;2.332;2023-09-08T03:45:34;101102.28;;;31.54;39.98
39275;BME280;24980;48.874;2.332;2023-09-08T03:48:08;101100.51;;;31.53;39.99
39275;BME280;24980;48.874;2.332;2023-09-08T03:50:40;101100.23;;;31.52;39.99
39275;BME280;24980;48.874;2.332;2023-09-08T03:53:07;101099.77;;;31.51;40.00
39275;BME280;24980;48.874;2.332;2023-09-08T03:55:41;101104.73;;;31.51;40.00
39275;BME280;24980;48.874;2.332;2023-09-08T03:58:06;101101.69;;;31.50;40.00
39275;BME280;24980;48.874;2.332;2023-09-08T04:00:36;101100.41;;;31.50;40.01
39275;BME280;24980;48.874;2.332;2023-09-08T04:03:07;101101.84;;;31.50;40.02
39275;BME280;24980;48.874;2.332;2023-09-08T04:05:40;101097.20;;;31.49;40.06
39275;BME280;24980;48.874;2.332;2023-09-08T04:08:08;101096.69;;;31.49;40.08
39275;BME280;24980;48.874;2.332;2023-09-08T04:10:39;101092.52;;;31.48;40.09
39275;BME280;24980;48.874;2.332;2023-09-08T04:13:09;101095.19;;;31.48;40.12
39275;BME280;24980;48.874;2.332;2023-09-08T04:15:39;101092.59;;;31.45;40.15
39275;BME280;24980;48.874;2.332;2023-09-08T04:18:10;101097.11;;;31.42;40.19
39275;BME280;24980;48.874;2.332;2023-09-08T04:20:39;101095.11;;;31.41;40.25
39275;BME280;24980;48.874;2.332;2023-09-08T04:23:09;101098.88;;;31.41;40.27
39275;BME280;24980;48.874;2.332;2023-09-08T04:25:39;101099.54;;;31.40;40.29
39275;BME280;24980;48.874;2.332;2023-09-08T04:28:11;101100.78;;;31.39;40.31
39275;BME280;24980;48.874;2.332;2023-09-08T04:30:40;101098.50;;;31.38;40.32
39275;BME280;24980;48.874;2.332;2023-09-08T04:33:11;101096.89;;;31.36;40.34
39275;BME280;24980;48.874;2.332;2023-09-08T04:35:45;101100.30;;;31.34;40.35
39275;BME280;24980;48.874;2.332;2023-09-08T04:38:11;101103.06;;;31.34;40.36
39275;BME280;24980;48.874;2.332;2023-09-08T04:40:41;101098.24;;;31.33;40.38
39275;BME280;24980;48.874;2.332;2023-09-08T04:43:21;101101.29;;;31.32;40.39
39275;BME280;24980;48.874;2.332;2023-09-08T04:45:45;101102.41;;;31.30;40.40
39275;BME280;24980;48.874;2.332;2023-09-08T04:48:13;101105.52;;;31.30;40.41
39275;BME280;24980;48.874;2.332;2023-09-08T04:50:43;101102.38;;;31.29;40.42
39275;BME280;24980;48.874;2.332;2023-09-08T04:53:13;101101.84;;;31.27;40.42
39275;BME280;24980;48.874;2.332;2023-09-08T04:55:44;101098.83;;;31.26;40.43
39275;BME280;24980;48.874;2.332;2023-09-08T04:58:14;101101.95;;;31.25;40.44
39275;BME280;24980;48.874;2.332;2023-09-08T05:00:44;101105.30;;;31.25;40.44
39275;BME280;24980;48.874;2.332;2023-09-08T05:03:14;101104.12;;;31.25;40.45
39275;BME280;24980;48.874;2.332;2023-09-08T05:05:45;101107.96;;;31.24;40.46
39275;BME280;24980;48.874;2.332;2023-09-08T05:08:15;101109.20;;;31.23;40.47
39275;BME280;24980;48.874;2.332;2023-09-08T05:10:45;101113.84;;;31.21;40.49
39275;BME280;24980;48.874;2.332;2023-09-08T05:13:18;101112.84;;;31.20;40.51
39275;BME280;24980;48.874;2.332;2023-09-08T05:15:46;101113.62;;;31.20;40.52
39275;BME280;24980;48.874;2.332;2023-09-08T05:18:20;101107.79;;;31.18;40.54
39275;BME280;24980;48.874;2.332;2023-09-08T05:20:52;101109.42;;;31.16;40.56
39275;BME280;24980;48.874;2.332;2023-09-08T05:23:19;101112.31;;;31.13;40.58
39275;BME280;24980;48.874;2.332;2023-09-08T05:25:49;101113.54;;;31.11;40.58
39275;BME280;24980;48.874;2.332;2023-09-08T05:28:19;101115.14;;;31.09;40.60
39275;BME280;24980;48.874;2.332;2023-09-08T05:30:53;101117.30;;;31.07;40.60
39275;BME280;24980;48.874;2.332;2023-09-08T05:33:20;101117.28;;;31.06;40.63
39275;BME280;24980;48.874;2.332;2023-09-08T05:35:51;101121.67;;;31.05;40.64
39275;BME280;24980;48.874;2.332;2023-09-08T05:38:23;101120.09;;;31.02;40.65
39275;BME280;24980;48.874;2.332;2023-09-08T05:40:51;101123.34;;;31.01;40.67
39275;BME280;24980;48.874;2.332;2023-09-08T05:43:24;101126.02;;;31.00;40.68
39275;BME280;24980;48.874;2.332;2023-09-08T05:45:53;101126.94;;;30.99;40.69
39275;BME280;24980;48.874;2.332;2023-09-08T05:48:23;101126.21;;;31.00;40.70
39275;BME280;24980;48.874;2.332;2023-09-08T05:50:59;101122.88;;;31.00;40.71
39275;BME280;24980;48.874;2.332;2023-09-08T05:53:29;101120.58;;;30.98;40.72
39275;BME280;24980;48.874;2.332;2023-09-08T05:55:55;101126.16;;;30.97;40.75
39275;BME280;24980;48.874;2.332;2023-09-08T05:58:25;101125.27;;;30.96;40.75
39275;BME280;24980;48.874;2.332;2023-09-08T06:00:59;101130.41;;;30.94;40.78
39275;BME280;24980;48.874;2.332;2023-09-08T06:03:33;101130.20;;;30.93;40.77
39275;BME280;24980;48.874;2.332;2023-09-08T06:05:59;101131.07;;;30.92;40.79
39275;BME280;24980;48.874;2.332;2023-09-08T06:08:28;101130.16;;;30.90;40.79
39275;BME280;24980;48.874;2.332;2023-09-08T06:11:04;101133.27;;;30.89;40.80
39275;BME280;24980;48.874;2.332;2023-09-08T06:13:30;101134.84;;;30.87;40.81
39275;BME280;24980;48.874;2.332;2023-09-08T06:15:59;101133.66;;;30.85;40.84
39275;BME280;24980;48.874;2.332;2023-09-08T06:18:30;101135.06;;;30.84;40.83
39275;BME280;24980;48.874;2.332;2023-09-08T06:21:00;101136.22;;;30.83;40.86
39275;BME280;24980;48.874;2.332;2023-09-08T06:23:31;101138.55;;;30.81;40.87
39275;BME280;24980;48.874;2.332;2023-09-08T06:26:01;101133.25;;;30.79;40.89
39275;BME280;24980;48.874;2.332;2023-09-08T06:28:33;101132.48;;;30.80;40.91
39275;BME280;24980;48.874;2.332;2023-09-08T06:31:01;101130.73;;;30.81;40.92
39275;BME280;24980;48.874;2.332;2023-09-08T06:33:32;101135.75;;;30.82;40.95
39275;BME280;24980;48.874;2.332;2023-09-08T06:36:03;101136.05;;;30.83;40.97
39275;BME280;24980;48.874;2.332;2023-09-08T06:38:36;101140.02;;;30.84;40.98
39275;BME280;24980;48.874;2.332;2023-09-08T06:41:10;101140.97;;;30.84;41.01
39275;BME280;24980;48.874;2.332;2023-09-08T06:43:34;101142.19;;;30.83;41.02
39275;BME280;24980;48.874;2.332;2023-09-08T06:46:04;101138.08;;;30.83;41.03
39275;BME280;24980;48.874;2.332;2023-09-08T06:48:37;101138.75;;;30.84;41.03
39275;BME280;24980;48.874;2.332;2023-09-08T06:51:05;101142.47;;;30.82;41.05
39275;BME280;24980;48.874;2.332;2023-09-08T06:53:35;101145.60;;;30.80;41.08
39275;BME280;24980;48.874;2.332;2023-09-08T06:56:06;101146.72;;;30.78;41.12
39275;BME280;24980;48.874;2.332;2023-09-08T06:58:36;101146.23;;;30.76;41.15
39275;BME280;24980;48.874;2.332;2023-09-08T07:01:06;101147.84;;;30.74;41.19
39275;BME280;24980;48.874;2.332;2023-09-08T07:03:37;101144.36;;;30.73;41.21
39275;BME280;24980;48.874;2.332;2023-09-08T07:06:07;101148.28;;;30.74;41.24
39275;BME280;24980;48.874;2.332;2023-09-08T07:08:37;101141.17;;;30.74;41.26
39275;BME280;24980;48.874;2.332;2023-09-08T07:11:11;101144.67;;;30.74;41.30
39275;BME280;24980;48.874;2.332;2023-09-08T07:13:38;101144.84;;;30.74;41.31
39275;BME280;24980;48.874;2.332;2023-09-08T07:16:09;101145.11;;;30.74;41.33
39275;BME280;24980;48.874;2.332;2023-09-08T07:18:44;101146.27;;;30.75;41.36
39275;BME280;24980;48.874;2.332;2023-09-08T07:21:09;101145.91;;;30.75;41.41
39275;BME280;24980;48.874;2.332;2023-09-08T07:23:40;101146.36;;;30.75;41.46
39275;BME280;24980;48.874;2.332;2023-09-08T07:26:10;101146.30;;;30.74;41.48
39275;BME280;24980;48.874;2.332;2023-09-08T07:28:45;101150.58;;;30.74;41.50
39275;BME280;24980;48.874;2.332;2023-09-08T07:31:16;101150.52;;;30.73;41.51
39275;BME280;24980;48.874;2.332;2023-09-08T07:33:41;101151.59;;;30.73;41.51
39275;BME280;24980;48.874;2.332;2023-09-08T07:36:15;101152.45;;;30.73;41.50
39275;BME280;24980;48.874;2.332;2023-09-08T07:38:42;101154.72;;;30.73;41.48
39275;BME280;24980;48.874;2.332;2023-09-08T07:41:17;101159.05;;;30.74;41.46
39275;BME280;24980;48.874;2.332;2023-09-08T07:43:44;101154.90;;;30.73;41.45
39275;BME280;24980;48.874;2.332;2023-09-08T07:46:14;101158.12;;;30.73;41.42
39275;BME280;24980;48.874;2.332;2023-09-08T07:48:49;101154.66;;;30.75;41.42
39275;BME280;24980;48.874;2.332;2023-09-08T07:51:15;101154.28;;;30.76;41.41
39275;BME280;24980;48.874;2.332;2023-09-08T07:53:47;101162.48;;;30.78;41.42
39275;BME280;24980;48.874;2.332;2023-09-08T07:56:15;101157.48;;;30.79;41.44
39275;BME280;24980;48.874;2.332;2023-09-08T07:58:49;101159.47;;;30.80;41.45
39275;BME280;24980;48.874;2.332;2023-09-08T08:03:47;101161.66;;;30.81;41.46
39275;BME280;24980;48.874;2.332;2023-09-08T08:06:17;101160.82;;;30.80;41.47
39275;BME280;24980;48.874;2.332;2023-09-08T08:08:48;101158.36;;;30.79;41.48
39275;BME280;24980;48.874;2.332;2023-09-08T08:11:18;101160.40;;;30.80;41.48
39275;BME280;24980;48.874;2.332;2023-09-08T08:13:48;101160.45;;;30.81;41.48
39275;BME280;24980;48.874;2.332;2023-09-08T08:16:19;101159.22;;;30.82;41.49
39275;BME280;24980;48.874;2.332;2023-09-08T08:18:49;101162.03;;;30.82;41.49
39275;BME280;24980;48.874;2.332;2023-09-08T08:21:19;101162.62;;;30.82;41.50
39275;BME280;24980;48.874;2.332;2023-09-08T08:23:50;101160.96;;;30.82;41.50
39275;BME280;24980;48.874;2.332;2023-09-08T08:26:20;101163.08;;;30.83;41.52
39275;BME280;24980;48.874;2.332;2023-09-08T08:28:50;101168.23;;;30.85;41.53
39275;BME280;24980;48.874;2.332;2023-09-08T08:31:25;101167.45;;;30.85;41.56
39275;BME280;24980;48.874;2.332;2023-09-08T08:33:51;101170.05;;;30.86;41.57
39275;BME280;24980;48.874;2.332;2023-09-08T08:36:22;101173.24;;;30.88;41.59
39275;BME280;24980;48.874;2.332;2023-09-08T08:38:52;101174.17;;;30.88;41.62
39275;BME280;24980;48.874;2.332;2023-09-08T08:41:23;101173.98;;;30.88;41.64
39275;BME280;24980;48.874;2.332;2023-09-08T08:43:54;101173.45;;;30.89;41.65
39275;BME280;24980;48.874;2.332;2023-09-08T08:46:24;101175.52;;;30.90;41.68
39275;BME280;24980;48.874;2.332;2023-09-08T08:48:54;101177.91;;;30.90;41.72
39275;BME280;24980;48.874;2.332;2023-09-08T08:51:24;101173.41;;;30.92;41.71
39275;BME280;24980;48.874;2.332;2023-09-08T08:53:55;101174.34;;;30.92;41.72
39275;BME280;24980;48.874;2.332;2023-09-08T08:56:28;101179.83;;;30.93;41.75
39275;BME280;24980;48.874;2.332;2023-09-08T08:58:55;101179.01;;;30.94;41.76
39275;BME280;24980;48.874;2.332;2023-09-08T09:01:28;101179.56;;;30.96;41.77
39275;BME280;24980;48.874;2.332;2023-09-08T09:03:57;101182.69;;;30.97;41.80
39275;BME280;24980;48.874;2.332;2023-09-08T09:06:26;101180.17;;;30.98;41.81
39275;BME280;24980;48.874;2.332;2023-09-08T09:08:57;101183.25;;;30.99;41.82
39275;BME280;24980;48.874;2.332;2023-09-08T09:11:27;101184.41;;;31.00;41.85
39275;BME280;24980;48.874;2.332;2023-09-08T09:13:59;101184.74;;;31.02;41.87
39275;BME280;24980;48.874;2.332;2023-09-08T09:16:28;101179.75;;;31.03;41.89
39275;BME280;24980;48.874;2.332;2023-09-08T09:18:59;101185.97;;;31.05;41.91
39275;BME280;24980;48.874;2.332;2023-09-08T09:21:42;101181.50;;;31.06;41.92
39275;BME280;24980;48.874;2.332;2023-09-08T09:23:59;101178.55;;;31.07;41.91
39275;BME280;24980;48.874;2.332;2023-09-08T09:26:29;101172.98;;;31.08;41.92
39275;BME280;24980;48.874;2.332;2023-09-08T09:28:59;101178.33;;;31.09;41.93
39275;BME280;24980;48.874;2.332;2023-09-08T09:31:29;101173.59;;;31.10;41.96
39275;BME280;24980;48.874;2.332;2023-09-08T09:36:32;101178.51;;;31.13;41.99
39275;BME280;24980;48.874;2.332;2023-09-08T09:39:00;101177.22;;;31.15;42.01
39275;BME280;24980;48.874;2.332;2023-09-08T09:41:30;101173.72;;;31.17;42.03
39275;BME280;24980;48.874;2.332;2023-09-08T09:44:01;101171.31;;;31.18;42.03
39275;BME280;24980;48.874;2.332;2023-09-08T09:46:36;101168.33;;;31.20;42.05
39275;BME280;24980;48.874;2.332;2023-09-08T09:49:01;101170.58;;;31.23;42.04
39275;BME280;24980;48.874;2.332;2023-09-08T09:51:32;101167.48;;;31.25;42.04
39275;BME280;24980;48.874;2.332;2023-09-08T09:54:03;101167.11;;;31.27;42.04
39275;BME280;24980;48.874;2.332;2023-09-08T09:56:33;101166.83;;;31.32;42.02
39275;BME280;24980;48.874;2.332;2023-09-08T09:59:09;101165.29;;;31.35;42.00
39275;BME280;24980;48.874;2.332;2023-09-08T10:01:37;101166.52;;;31.38;41.97
39275;BME280;24980;48.874;2.332;2023-09-08T10:04:05;101162.69;;;31.40;41.97
39275;BME280;24980;48.874;2.332;2023-09-08T10:06:39;101160.46;;;31.41;41.96
39275;BME280;24980;48.874;2.332;2023-09-08T10:09:07;101163.73;;;31.43;41.98
39275;BME280;24980;48.874;2.332;2023-09-08T10:11:44;101159.48;;;31.44;41.98
39275;BME280;24980;48.874;2.332;2023-09-08T10:14:07;101160.22;;;31.47;41.97
39275;BME280;24980;48.874;2.332;2023-09-08T10:16:39;101156.68;;;31.48;41.96
39275;BME280;24980;48.874;2.332;2023-09-08T10:19:09;101160.50;;;31.52;41.96
39275;BME280;24980;48.874;2.332;2023-09-08T10:21:41;101154.83;;;31.53;41.96
39275;BME280;24980;48.874;2.332;2023-09-08T10:24:20;101152.92;;;31.56;41.97
39275;BME280;24980;48.874;2.332;2023-09-08T10:26:40;101155.72;;;31.58;41.97
39275;BME280;24980;48.874;2.332;2023-09-08T10:29:12;101158.28;;;31.60;41.98
39275;BME280;24980;48.874;2.332;2023-09-08T10:31:39;101160.20;;;31.61;42.00
39275;BME280;24980;48.874;2.332;2023-09-08T10:34:21;101157.21;;;31.65;42.02
39275;BME280;24980;48.874;2.332;2023-09-08T10:36:41;101158.62;;;31.67;42.02
39275;BME280;24980;48.874;2.332;2023-09-08T10:39:33;101154.09;;;31.69;42.03
39275;BME280;24980;48.874;2.332;2023-09-08T10:41:40;101157.89;;;31.72;42.05
39275;BME280;24980;48.874;2.332;2023-09-08T10:44:14;101154.83;;;31.75;42.07
39275;BME280;24980;48.874;2.332;2023-09-08T10:46:42;101155.27;;;31.78;42.11
39275;BME280;24980;48.874;2.332;2023-09-08T10:49:10;101155.05;;;31.80;42.12
39275;BME280;24980;48.874;2.332;2023-09-08T10:51:41;101150.97;;;31.81;42.15
39275;BME280;24980;48.874;2.332;2023-09-08T10:54:11;101147.19;;;31.83;42.16
39275;BME280;24980;48.874;2.332;2023-09-08T10:56:58;101144.99;;;31.86;42.16
39275;BME280;24980;48.874;2.332;2023-09-08T10:59:11;101144.17;;;31.87;42.17
39275;BME280;24980;48.874;2.332;2023-09-08T11:01:42;101141.34;;;31.90;42.16
39275;BME280;24980;48.874;2.332;2023-09-08T11:04:13;101139.34;;;31.95;42.15
39275;BME280;24980;48.874;2.332;2023-09-08T11:06:42;101136.99;;;31.97;42.15
39275;BME280;24980;48.874;2.332;2023-09-08T11:09:13;101133.11;;;31.99;42.14
39275;BME280;24980;48.874;2.332;2023-09-08T11:11:43;101133.69;;;32.01;42.14
39275;BME280;24980;48.874;2.332;2023-09-08T11:14:14;101134.77;;;32.04;42.15
39275;BME280;24980;48.874;2.332;2023-09-08T11:16:46;101132.00;;;32.06;42.15
39275;BME280;24980;48.874;2.332;2023-09-08T11:19:14;101125.09;;;32.08;42.14
39275;BME280;24980;48.874;2.332;2023-09-08T11:21:45;101129.72;;;32.10;42.14
39275;BME280;24980;48.874;2.332;2023-09-08T11:24:20;101126.86;;;32.13;42.13
39275;BME280;24980;48.874;2.332;2023-09-08T11:26:48;101129.61;;;32.16;42.13
39275;BME280;24980;48.874;2.332;2023-09-08T11:29:19;101130.92;;;32.17;42.12
39275;BME280;24980;48.874;2.332;2023-09-08T11:31:54;101128.28;;;32.20;42.13
39275;BME280;24980;48.874;2.332;2023-09-08T11:34:20;101128.16;;;32.22;42.12
39275;BME280;24980;48.874;2.332;2023-09-08T11:36:49;101124.91;;;32.25;42.11
39275;BME280;24980;48.874;2.332;2023-09-08T11:39:18;101129.23;;;32.27;42.09
39275;BME280;24980;48.874;2.332;2023-09-08T11:41:48;101123.22;;;32.30;42.08
39275;BME280;24980;48.874;2.332;2023-09-08T11:44:19;101127.89;;;32.32;42.06
39275;BME280;24980;48.874;2.332;2023-09-08T11:46:50;101122.47;;;32.34;42.05
39275;BME280;24980;48.874;2.332;2023-09-08T11:49:20;101128.12;;;32.36;42.05
39275;BME280;24980;48.874;2.332;2023-09-08T11:51:51;101123.98;;;32.38;42.05
39275;BME280;24980;48.874;2.332;2023-09-08T11:54:21;101121.92;;;32.40;42.04
39275;BME280;24980;48.874;2.332;2023-09-08T11:56:52;101122.12;;;32.40;42.04
39275;BME280;24980;48.874;2.332;2023-09-08T11:59:25;101123.09;;;32.42;42.03
39275;BME280;24980;48.874;2.332;2023-09-08T12:01:53;101120.05;;;32.43;42.03
39275;BME280;24980;48.874;2.332;2023-09-08T12:04:23;101114.29;;;32.44;42.07
39275;BME280;24980;48.874;2.332;2023-09-08T12:06:54;101111.89;;;32.46;42.07
39275;BME280;24980;48.874;2.332;2023-09-08T12:09:24;101109.00;;;32.48;42.06
39275;BME280;24980;48.874;2.332;2023-09-08T12:11:55;101107.66;;;32.51;42.04
39275;BME280;24980;48.874;2.332;2023-09-08T12:14:25;101102.00;;;32.54;42.02
39275;BME280;24980;48.874;2.332;2023-09-08T12:17:13;101099.89;;;32.56;42.00
39275;BME280;24980;48.874;2.332;2023-09-08T12:19:29;101099.05;;;32.58;42.00
39275;BME280;24980;48.874;2.332;2023-09-08T12:22:00;101097.20;;;32.61;41.98
39275;BME280;24980;48.874;2.332;2023-09-08T12:24:56;101097.31;;;32.63;41.96
39275;BME280;24980;48.874;2.332;2023-09-08T12:26:57;101098.45;;;32.65;41.94
39275;BME280;24980;48.874;2.332;2023-09-08T12:29:27;101097.98;;;32.67;41.93
39275;BME280;24980;48.874;2.332;2023-09-08T12:31:57;101093.55;;;32.69;41.90
39275;BME280;24980;48.874;2.332;2023-09-08T12:34:28;101092.06;;;32.72;41.85
39275;BME280;24980;48.874;2.332;2023-09-08T12:37:01;101087.12;;;32.74;41.83
39275;BME280;24980;48.874;2.332;2023-09-08T12:39:30;101086.89;;;32.77;41.80
39275;BME280;24980;48.874;2.332;2023-09-08T12:41:59;101087.34;;;32.79;41.76
39275;BME280;24980;48.874;2.332;2023-09-08T12:44:31;101082.72;;;32.81;41.74
39275;BME280;24980;48.874;2.332;2023-09-08T12:46:59;101082.08;;;32.83;41.70
39275;BME280;24980;48.874;2.332;2023-09-08T12:49:30;101085.46;;;32.85;41.67
39275;BME280;24980;48.874;2.332;2023-09-08T12:52:01;101083.75;;;32.88;41.64
39275;BME280;24980;48.874;2.332;2023-09-08T12:54:31;101083.66;;;32.90;41.62
39275;BME280;24980;48.874;2.332;2023-09-08T12:57:02;101080.86;;;32.92;41.60
39275;BME280;24980;48.874;2.332;2023-09-08T12:59:37;101078.45;;;32.95;41.56
39275;BME280;24980;48.874;2.332;2023-09-08T13:02:01;101073.05;;;32.98;41.54
39275;BME280;24980;48.874;2.332;2023-09-08T13:04:31;101071.31;;;33.00;41.52
39275;BME280;24980;48.874;2.332;2023-09-08T13:07:10;101066.50;;;33.02;41.50
39275;BME280;24980;48.874;2.332;2023-09-08T13:09:32;101064.93;;;33.04;41.48
39275;BME280;24980;48.874;2.332;2023-09-08T13:12:03;101059.77;;;33.05;41.47
39275;BME280;24980;48.874;2.332;2023-09-08T13:14:33;101067.80;;;33.06;41.48
39275;BME280;24980;48.874;2.332;2023-09-08T13:17:04;101058.15;;;33.08;41.48